sensor_id;sensor_type;location;lat;lon;timestamp;pressure;altitude;pressure_sealevel;temperature;humidity
35307;BME280;21420;52.196;21.416;2022-09-29T00:00:36;98694.77;;;8.45;66.79
35307;BME280;21420;52.196;21.416;2022-09-29T00:03:04;98693.40;;;8.45;66.86
35307;BME280;21420;52.196;21.416;2022-09-29T00:05:30;98693.91;;;8.41;66.84
35307;BME280;21420;52.196;21.416;2022-09-29T00:07:57;98698.20;;;8.42;66.93
35307;BME280;21420;52.196;21.416;2022-09-29T00:10:23;98703.09;;;8.42;67.04
35307;BME280;21420;52.196;21.416;2022-09-29T00:12:50;98694.96;;;8.46;67.10
35307;BME280;21420;52.196;21.416;2022-09-29T00:15:16;98696.98;;;8.49;67.16
35307;BME280;21420;52.196;21.416;2022-09-29T00:17:44;98692.31;;;8.49;67.20
35307;BME280;21420;52.196;21.416;2022-09-29T00:20:11;98688.11;;;8.55;67.32
35307;BME280;21420;52.196;21.416;2022-09-29T00:22:37;98685.69;;;8.60;67.35
35307;BME280;21420;52.196;21.416;2022-09-29T00:25:04;98681.70;;;8.67;67.47
35307;BME280;21420;52.196;21.416;2022-09-29T00:27:30;98675.94;;;8.72;67.45
35307;BME280;21420;52.196;21.416;2022-09-29T00:29:56;98686.34;;;8.77;67.52
35307;BME280;21420;52.196;21.416;2022-09-29T00:32:22;98685.29;;;8.85;67.49
35307;BME280;21420;52.196;21.416;2022-09-29T00:34:48;98685.29;;;8.85;67.49
35307;BME280;21420;52.196;21.416;2022-09-29T00:37:15;98683.64;;;8.90;67.59
35307;BME280;21420;52.196;21.416;2022-09-29T00:39:41;98688.72;;;8.91;67.57
35307;BME280;21420;52.196;21.416;2022-09-29T00:42:10;98693.08;;;8.96;67.63
35307;BME280;21420;52.196;21.416;2022-09-29T00:47:27;98693.64;;;9.05;67.69
35307;BME280;21420;52.196;21.416;2022-09-29T00:49:58;98693.83;;;9.06;67.68
35307;BME280;21420;52.196;21.416;2022-09-29T00:52:35;98685.80;;;9.04;67.64
35307;BME280;21420;52.196;21.416;2022-09-29T00:55:06;98692.40;;;9.03;67.69
35307;BME280;21420;52.196;21.416;2022-09-29T00:57:40;98692.40;;;9.03;67.69
35307;BME280;21420;52.196;21.416;2022-09-29T01:00:11;98690.25;;;9.02;67.74
35307;BME280;21420;52.196;21.416;2022-09-29T01:02:56;98688.89;;;9.02;67.81
35307;BME280;21420;52.196;21.416;2022-09-29T01:05:24;98679.92;;;9.02;67.79
35307;BME280;21420;52.196;21.416;2022-09-29T01:07:52;98682.45;;;9.01;67.80
35307;BME280;21420;52.196;21.416;2022-09-29T01:10:18;98680.86;;;9.00;67.83
35307;BME280;21420;52.196;21.416;2022-09-29T01:12:46;98686.32;;;9.00;67.86
35307;BME280;21420;52.196;21.416;2022-09-29T01:15:16;98674.39;;;8.98;67.66
35307;BME280;21420;52.196;21.416;2022-09-29T01:17:44;98674.39;;;8.98;67.66
35307;BME280;21420;52.196;21.416;2022-09-29T01:20:18;98680.79;;;8.96;67.65
35307;BME280;21420;52.196;21.416;2022-09-29T01:40:51;98708.36;;;8.87;68.07
35307;BME280;21420;52.196;21.416;2022-09-29T01:43:24;98718.86;;;8.85;68.07
35307;BME280;21420;52.196;21.416;2022-09-29T01:46:00;98728.76;;;8.84;68.06
35307;BME280;21420;52.196;21.416;2022-09-29T01:48:37;98724.23;;;8.82;68.07
35307;BME280;21420;52.196;21.416;2022-09-29T01:51:08;98724.59;;;8.80;68.08
35307;BME280;21420;52.196;21.416;2022-09-29T01:53:45;98720.50;;;8.80;68.12
35307;BME280;21420;52.196;21.416;2022-09-29T01:56:18;98716.98;;;8.80;68.07
35307;BME280;21420;52.196;21.416;2022-09-29T01:58:51;98724.75;;;8.78;68.17
35307;BME280;21420;52.196;21.416;2022-09-29T02:01:22;98729.66;;;8.78;68.19
35307;BME280;21420;52.196;21.416;2022-09-29T02:03:56;98728.06;;;8.77;68.17
35307;BME280;21420;52.196;21.416;2022-09-29T02:06:37;98727.44;;;8.74;68.14
35307;BME280;21420;52.196;21.416;2022-09-29T02:09:11;98729.16;;;8.72;68.20
35307;BME280;21420;52.196;21.416;2022-09-29T02:11:40;98728.52;;;8.69;68.20
35307;BME280;21420;52.196;21.416;2022-09-29T02:19:21;98738.16;;;8.63;68.28
35307;BME280;21420;52.196;21.416;2022-09-29T02:21:50;98738.50;;;8.62;68.27
35307;BME280;21420;52.196;21.416;2022-09-29T02:24:20;98739.23;;;8.59;68.28
35307;BME280;21420;52.196;21.416;2022-09-29T02:26:47;98735.66;;;8.54;68.28
35307;BME280;21420;52.196;21.416;2022-09-29T02:29:14;98748.66;;;8.51;68.39
35307;BME280;21420;52.196;21.416;2022-09-29T02:31:42;98747.84;;;8.51;68.38
35307;BME280;21420;52.196;21.416;2022-09-29T02:34:11;98747.65;;;8.50;68.42
35307;BME280;21420;52.196;21.416;2022-09-29T02:36:46;98751.73;;;8.50;68.44
35307;BME280;21420;52.196;21.416;2022-09-29T02:39:29;98758.36;;;8.49;68.41
35307;BME280;21420;52.196;21.416;2022-09-29T02:42:12;98762.80;;;8.47;68.43
35307;BME280;21420;52.196;21.416;2022-09-29T02:51:41;98753.61;;;8.46;68.54
35307;BME280;21420;52.196;21.416;2022-09-29T02:59:33;98751.46;;;8.45;68.62
35307;BME280;21420;52.196;21.416;2022-09-29T03:01:57;98756.92;;;8.45;68.61
35307;BME280;21420;52.196;21.416;2022-09-29T03:04:25;98755.12;;;8.43;68.59
35307;BME280;21420;52.196;21.416;2022-09-29T03:06:53;98769.19;;;8.45;68.66
35307;BME280;21420;52.196;21.416;2022-09-29T03:09:19;98783.61;;;8.46;68.68
35307;BME280;21420;52.196;21.416;2022-09-29T03:11:46;98776.36;;;8.44;68.61
35307;BME280;21420;52.196;21.416;2022-09-29T03:14:12;98773.58;;;8.40;68.59
35307;BME280;21420;52.196;21.416;2022-09-29T03:16:38;98765.52;;;8.38;68.57
35307;BME280;21420;52.196;21.416;2022-09-29T03:19:04;98777.36;;;8.36;68.57
35307;BME280;21420;52.196;21.416;2022-09-29T03:21:32;98780.64;;;8.35;68.66
35307;BME280;21420;52.196;21.416;2022-09-29T03:23:58;98779.42;;;8.32;68.38
35307;BME280;21420;52.196;21.416;2022-09-29T03:26:25;98779.42;;;8.32;68.38
35307;BME280;21420;52.196;21.416;2022-09-29T03:28:52;98787.17;;;8.30;68.63
35307;BME280;21420;52.196;21.416;2022-09-29T03:31:18;98796.86;;;8.28;68.63
35307;BME280;21420;52.196;21.416;2022-09-29T03:33:44;98809.52;;;8.26;68.65
35307;BME280;21420;52.196;21.416;2022-09-29T03:36:10;98811.80;;;8.24;68.67
35307;BME280;21420;52.196;21.416;2022-09-29T03:38:37;98815.31;;;8.25;68.68
35307;BME280;21420;52.196;21.416;2022-09-29T03:41:04;98805.54;;;8.24;68.70
35307;BME280;21420;52.196;21.416;2022-09-29T03:43:31;98797.94;;;8.23;68.74
35307;BME280;21420;52.196;21.416;2022-09-29T03:46:00;98804.17;;;8.24;68.76
35307;BME280;21420;52.196;21.416;2022-09-29T03:48:26;98809.63;;;8.24;68.80
35307;BME280;21420;52.196;21.416;2022-09-29T03:50:54;98817.81;;;8.24;68.78
35307;BME280;21420;52.196;21.416;2022-09-29T03:53:20;98813.52;;;8.23;68.77
35307;BME280;21420;52.196;21.416;2022-09-29T03:55:47;98817.61;;;8.23;68.77
35307;BME280;21420;52.196;21.416;2022-09-29T03:58:14;98823.64;;;8.22;68.78
35307;BME280;21420;52.196;21.416;2022-09-29T04:00:41;98826.80;;;8.24;68.85
35307;BME280;21420;52.196;21.416;2022-09-29T04:03:07;98819.98;;;8.24;68.87
35307;BME280;21420;52.196;21.416;2022-09-29T04:05:34;98818.05;;;8.25;68.80
35307;BME280;21420;52.196;21.416;2022-09-29T04:08:04;98819.55;;;8.22;68.78
35307;BME280;21420;52.196;21.416;2022-09-29T04:10:33;98812.50;;;8.21;68.79
35307;BME280;21420;52.196;21.416;2022-09-29T04:13:03;98812.22;;;8.17;68.74
35307;BME280;21420;52.196;21.416;2022-09-29T04:15:31;98820.77;;;8.15;68.77
35307;BME280;21420;52.196;21.416;2022-09-29T04:17:57;98819.95;;;8.14;68.80
35307;BME280;21420;52.196;21.416;2022-09-29T04:20:24;98821.91;;;8.14;68.82
35307;BME280;21420;52.196;21.416;2022-09-29T04:22:50;98820.53;;;8.14;68.86
35307;BME280;21420;52.196;21.416;2022-09-29T04:25:17;98814.50;;;8.14;68.90
35307;BME280;21420;52.196;21.416;2022-09-29T04:27:43;98809.20;;;8.02;68.91
35307;BME280;21420;52.196;21.416;2022-09-29T04:30:10;98823.27;;;8.14;68.90
35307;BME280;21420;52.196;21.416;2022-09-29T04:32:38;98826.34;;;8.12;68.88
35307;BME280;21420;52.196;21.416;2022-09-29T04:35:04;98825.12;;;8.10;68.90
35307;BME280;21420;52.196;21.416;2022-09-29T04:37:31;98821.95;;;8.08;68.89
35307;BME280;21420;52.196;21.416;2022-09-29T04:39:57;98825.41;;;8.05;68.88
35307;BME280;21420;52.196;21.416;2022-09-29T04:42:23;98839.76;;;8.02;68.88
35307;BME280;21420;52.196;21.416;2022-09-29T04:44:49;98841.23;;;7.99;68.88
35307;BME280;21420;52.196;21.416;2022-09-29T04:47:16;98828.77;;;7.98;68.93
35307;BME280;21420;52.196;21.416;2022-09-29T04:49:42;98833.43;;;7.98;68.92
35307;BME280;21420;52.196;21.416;2022-09-29T04:52:10;98834.56;;;7.97;68.93
35307;BME280;21420;52.196;21.416;2022-09-29T04:54:37;98832.07;;;7.98;69.01
35307;BME280;21420;52.196;21.416;2022-09-29T04:57:04;98835.58;;;7.98;68.99
35307;BME280;21420;52.196;21.416;2022-09-29T04:59:31;98843.03;;;8.01;69.05
35307;BME280;21420;52.196;21.416;2022-09-29T05:01:58;98842.11;;;8.03;69.05
35307;BME280;21420;52.196;21.416;2022-09-29T05:04:24;98842.84;;;8.10;69.13
35307;BME280;21420;52.196;21.416;2022-09-29T05:06:50;98839.42;;;8.13;69.12
35307;BME280;21420;52.196;21.416;2022-09-29T05:09:16;98845.16;;;8.18;69.13
35307;BME280;21420;52.196;21.416;2022-09-29T05:11:43;98844.00;;;8.19;69.05
35307;BME280;21420;52.196;21.416;2022-09-29T05:14:09;98843.37;;;8.25;69.15
35307;BME280;21420;52.196;21.416;2022-09-29T05:16:36;98841.86;;;8.28;69.11
35307;BME280;21420;52.196;21.416;2022-09-29T05:19:02;98843.89;;;8.31;69.08
35307;BME280;21420;52.196;21.416;2022-09-29T05:21:28;98851.78;;;8.36;69.10
35307;BME280;21420;52.196;21.416;2022-09-29T05:23:55;98847.69;;;8.36;69.06
35307;BME280;21420;52.196;21.416;2022-09-29T05:26:21;98852.42;;;8.39;69.08
35307;BME280;21420;52.196;21.416;2022-09-29T05:28:48;98863.22;;;8.42;69.45
35307;BME280;21420;52.196;21.416;2022-09-29T05:31:15;98863.22;;;8.42;69.45
35307;BME280;21420;52.196;21.416;2022-09-29T05:33:42;98875.23;;;8.47;69.11
35307;BME280;21420;52.196;21.416;2022-09-29T05:36:10;98875.72;;;8.52;69.20
35307;BME280;21420;52.196;21.416;2022-09-29T05:38:38;98882.67;;;8.60;69.00
35307;BME280;21420;52.196;21.416;2022-09-29T05:41:05;98885.14;;;8.65;68.58
35307;BME280;21420;52.196;21.416;2022-09-29T05:43:33;98885.14;;;8.65;68.58
35307;BME280;21420;52.196;21.416;2022-09-29T05:46:04;98884.06;;;8.69;69.16
35307;BME280;21420;52.196;21.416;2022-09-29T05:48:33;98886.22;;;8.70;69.08
35307;BME280;21420;52.196;21.416;2022-09-29T05:51:12;98897.61;;;8.75;69.18
35307;BME280;21420;52.196;21.416;2022-09-29T05:53:39;98893.61;;;8.69;69.04
35307;BME280;21420;52.196;21.416;2022-09-29T05:56:12;98903.94;;;8.80;69.10
35307;BME280;21420;52.196;21.416;2022-09-29T05:58:40;98903.94;;;8.80;69.10
35307;BME280;21420;52.196;21.416;2022-09-29T06:01:08;98891.94;;;8.84;69.06
35307;BME280;21420;52.196;21.416;2022-09-29T06:03:39;98890.44;;;8.96;69.24
35307;BME280;21420;52.196;21.416;2022-09-29T06:06:08;98896.44;;;9.15;69.32
35307;BME280;21420;52.196;21.416;2022-09-29T06:08:36;98896.56;;;9.32;69.31
35307;BME280;21420;52.196;21.416;2022-09-29T06:11:15;98897.43;;;9.50;68.94
35307;BME280;21420;52.196;21.416;2022-09-29T06:13:47;98897.43;;;9.50;68.94
35307;BME280;21420;52.196;21.416;2022-09-29T06:16:17;98894.91;;;9.74;69.41
35307;BME280;21420;52.196;21.416;2022-09-29T06:18:45;98901.13;;;10.24;69.88
35307;BME280;21420;52.196;21.416;2022-09-29T06:21:32;98894.50;;;10.99;70.00
35307;BME280;21420;52.196;21.416;2022-09-29T06:24:00;98899.12;;;11.12;69.06
35307;BME280;21420;52.196;21.416;2022-09-29T06:26:27;98898.23;;;11.21;69.02
35307;BME280;21420;52.196;21.416;2022-09-29T06:28:55;98905.61;;;11.34;68.93
35307;BME280;21420;52.196;21.416;2022-09-29T06:31:24;98907.22;;;11.38;68.76
35307;BME280;21420;52.196;21.416;2022-09-29T06:33:54;98906.67;;;11.42;68.61
35307;BME280;21420;52.196;21.416;2022-09-29T06:39:26;98918.30;;;11.29;68.20
35307;BME280;21420;52.196;21.416;2022-09-29T06:41:53;98925.48;;;11.07;67.97
35307;BME280;21420;52.196;21.416;2022-09-29T06:44:23;98931.17;;;10.91;68.00
35307;BME280;21420;52.196;21.416;2022-09-29T06:46:50;98927.52;;;10.79;67.93
35307;BME280;21420;52.196;21.416;2022-09-29T06:49:18;98932.00;;;10.65;67.77
35307;BME280;21420;52.196;21.416;2022-09-29T06:51:45;98931.23;;;10.51;67.77
35307;BME280;21420;52.196;21.416;2022-09-29T06:54:14;98937.88;;;10.50;68.15
35307;BME280;21420;52.196;21.416;2022-09-29T06:56:48;98937.46;;;10.48;68.21
35307;BME280;21420;52.196;21.416;2022-09-29T06:59:16;98937.04;;;10.46;68.23
35307;BME280;21420;52.196;21.416;2022-09-29T07:01:42;98942.88;;;10.44;68.05
35307;BME280;21420;52.196;21.416;2022-09-29T07:04:09;98942.84;;;10.40;68.10
35307;BME280;21420;52.196;21.416;2022-09-29T07:06:36;98942.61;;;10.39;68.14
35307;BME280;21420;52.196;21.416;2022-09-29T07:09:02;98950.40;;;10.37;68.10
35307;BME280;21420;52.196;21.416;2022-09-29T07:11:29;98950.53;;;10.31;68.09
35307;BME280;21420;52.196;21.416;2022-09-29T07:13:55;98950.56;;;10.35;68.21
35307;BME280;21420;52.196;21.416;2022-09-29T07:16:23;98946.72;;;10.39;68.19
35307;BME280;21420;52.196;21.416;2022-09-29T07:18:49;98957.40;;;10.48;68.28
35307;BME280;21420;52.196;21.416;2022-09-29T07:21:16;98957.63;;;10.49;68.21
35307;BME280;21420;52.196;21.416;2022-09-29T07:23:44;98955.15;;;10.54;68.20
35307;BME280;21420;52.196;21.416;2022-09-29T07:26:12;98965.67;;;10.52;68.07
35307;BME280;21420;52.196;21.416;2022-09-29T07:28:41;98963.23;;;10.47;67.98
35307;BME280;21420;52.196;21.416;2022-09-29T07:31:12;98964.59;;;10.47;68.04
35307;BME280;21420;52.196;21.416;2022-09-29T07:33:41;98976.62;;;10.38;67.89
35307;BME280;21420;52.196;21.416;2022-09-29T07:36:10;98970.72;;;10.36;67.95
35307;BME280;21420;52.196;21.416;2022-09-29T07:38:37;98973.23;;;10.35;68.04
35307;BME280;21420;52.196;21.416;2022-09-29T07:41:06;98978.45;;;10.44;68.18
35307;BME280;21420;52.196;21.416;2022-09-29T07:43:34;98982.55;;;10.44;67.96
35307;BME280;21420;52.196;21.416;2022-09-29T07:46:01;98988.41;;;10.43;67.93
35307;BME280;21420;52.196;21.416;2022-09-29T07:48:29;98981.67;;;10.36;67.74
35307;BME280;21420;52.196;21.416;2022-09-29T07:53:31;98984.41;;;10.36;67.92
35307;BME280;21420;52.196;21.416;2022-09-29T07:56:12;98986.98;;;10.39;67.93
35307;BME280;21420;52.196;21.416;2022-09-29T07:58:45;98992.72;;;10.44;67.98
35307;BME280;21420;52.196;21.416;2022-09-29T08:01:12;99001.13;;;10.45;67.91
35307;BME280;21420;52.196;21.416;2022-09-29T08:03:44;99003.50;;;10.46;67.92
35307;BME280;21420;52.196;21.416;2022-09-29T08:06:12;99007.96;;;10.45;67.87
35307;BME280;21420;52.196;21.416;2022-09-29T08:08:39;99007.70;;;10.40;67.78
35307;BME280;21420;52.196;21.416;2022-09-29T08:11:13;99004.92;;;10.36;67.77
35307;BME280;21420;52.196;21.416;2022-09-29T08:13:37;99006.23;;;10.33;67.68
35307;BME280;21420;52.196;21.416;2022-09-29T08:16:07;99009.91;;;10.31;67.71
35307;BME280;21420;52.196;21.416;2022-09-29T08:18:36;99013.91;;;10.37;67.86
35307;BME280;21420;52.196;21.416;2022-09-29T08:21:03;99007.77;;;10.44;67.88
35307;BME280;21420;52.196;21.416;2022-09-29T08:23:39;99019.83;;;10.52;67.91
35307;BME280;21420;52.196;21.416;2022-09-29T08:26:14;99017.67;;;10.52;67.72
35307;BME280;21420;52.196;21.416;2022-09-29T08:28:43;99025.66;;;10.51;67.70
35307;BME280;21420;52.196;21.416;2022-09-29T08:31:18;99026.23;;;10.50;67.77
35307;BME280;21420;52.196;21.416;2022-09-29T08:33:42;99033.34;;;10.55;67.65
35307;BME280;21420;52.196;21.416;2022-09-29T08:36:09;99032.86;;;10.62;67.79
35307;BME280;21420;52.196;21.416;2022-09-29T08:38:42;99029.50;;;10.73;67.79
35307;BME280;21420;52.196;21.416;2022-09-29T08:46:53;99034.03;;;10.88;67.59
35307;BME280;21420;52.196;21.416;2022-09-29T08:52:50;99035.74;;;11.00;67.74
35307;BME280;21420;52.196;21.416;2022-09-29T08:54:45;99040.11;;;11.04;67.54
35307;BME280;21420;52.196;21.416;2022-09-29T08:57:18;99039.16;;;11.07;67.42
35307;BME280;21420;52.196;21.416;2022-09-29T08:59:56;99049.95;;;11.09;67.46
35307;BME280;21420;52.196;21.416;2022-09-29T09:02:43;99047.77;;;11.22;67.63
35307;BME280;21420;52.196;21.416;2022-09-29T09:17:03;99068.38;;;11.12;67.18
35307;BME280;21420;52.196;21.416;2022-09-29T09:22:33;99066.61;;;11.10;67.14
35307;BME280;21420;52.196;21.416;2022-09-29T09:25:22;99068.33;;;11.22;67.31
35307;BME280;21420;52.196;21.416;2022-09-29T09:28:11;99074.62;;;11.39;67.48
35307;BME280;21420;52.196;21.416;2022-09-29T09:30:39;99078.11;;;11.53;67.36
35307;BME280;21420;52.196;21.416;2022-09-29T09:33:21;99079.22;;;11.65;67.29
35307;BME280;21420;52.196;21.416;2022-09-29T09:36:11;99075.40;;;11.74;67.15
35307;BME280;21420;52.196;21.416;2022-09-29T09:38:55;99081.84;;;11.88;67.14
35307;BME280;21420;52.196;21.416;2022-09-29T09:41:31;99075.16;;;12.06;67.12
35307;BME280;21420;52.196;21.416;2022-09-29T09:44:15;99075.90;;;12.44;67.47
35307;BME280;21420;52.196;21.416;2022-09-29T09:46:55;99073.97;;;12.73;67.37
35307;BME280;21420;52.196;21.416;2022-09-29T09:49:38;99075.61;;;12.84;66.93
35307;BME280;21420;52.196;21.416;2022-09-29T09:52:36;99087.03;;;13.25;67.53
35307;BME280;21420;52.196;21.416;2022-09-29T09:55:03;99090.32;;;14.19;68.20
35307;BME280;21420;52.196;21.416;2022-09-29T10:02:47;99088.28;;;16.19;67.31
35307;BME280;21420;52.196;21.416;2022-09-29T10:05:18;99095.89;;;16.30;66.40
35307;BME280;21420;52.196;21.416;2022-09-29T10:07:46;99096.25;;;16.32;66.12
35307;BME280;21420;52.196;21.416;2022-09-29T10:10:18;99097.08;;;16.26;65.62
35307;BME280;21420;52.196;21.416;2022-09-29T10:12:56;99098.34;;;16.17;65.51
35307;BME280;21420;52.196;21.416;2022-09-29T10:15:34;99102.25;;;16.23;65.43
35307;BME280;21420;52.196;21.416;2022-09-29T10:18:15;99104.80;;;16.75;65.93
35307;BME280;21420;52.196;21.416;2022-09-29T10:20:43;99109.52;;;16.55;64.65
35307;BME280;21420;52.196;21.416;2022-09-29T10:23:23;99106.55;;;16.54;65.08
35307;BME280;21420;52.196;21.416;2022-09-29T10:26:00;99106.16;;;16.78;65.30
35307;BME280;21420;52.196;21.416;2022-09-29T10:28:27;99104.80;;;17.01;65.14
35307;BME280;21420;52.196;21.416;2022-09-29T10:30:56;99115.80;;;17.27;65.38
35307;BME280;21420;52.196;21.416;2022-09-29T10:33:23;99118.75;;;17.78;65.32
35307;BME280;21420;52.196;21.416;2022-09-29T10:36:04;99116.95;;;18.10;65.28
35307;BME280;21420;52.196;21.416;2022-09-29T10:38:34;99117.64;;;18.57;65.22
35307;BME280;21420;52.196;21.416;2022-09-29T10:41:05;99125.65;;;18.90;64.76
35307;BME280;21420;52.196;21.416;2022-09-29T10:43:38;99125.95;;;19.07;64.20
35307;BME280;21420;52.196;21.416;2022-09-29T10:49:21;99126.13;;;18.46;62.28
35307;BME280;21420;52.196;21.416;2022-09-29T10:54:34;99128.27;;;18.35;62.83
35307;BME280;21420;52.196;21.416;2022-09-29T10:57:13;99131.61;;;18.38;62.46
35307;BME280;21420;52.196;21.416;2022-09-29T10:59:50;99131.87;;;18.20;61.72
35307;BME280;21420;52.196;21.416;2022-09-29T11:04:58;99139.09;;;17.64;61.69
35307;BME280;21420;52.196;21.416;2022-09-29T11:07:26;99140.13;;;17.58;61.62
35307;BME280;21420;52.196;21.416;2022-09-29T11:09:53;99143.88;;;17.60;61.99
35307;BME280;21420;52.196;21.416;2022-09-29T11:12:29;99140.80;;;17.54;61.75
35307;BME280;21420;52.196;21.416;2022-09-29T11:14:58;99157.39;;;17.54;61.64
35307;BME280;21420;52.196;21.416;2022-09-29T11:17:28;99153.19;;;17.92;62.18
35307;BME280;21420;52.196;21.416;2022-09-29T11:20:09;99154.55;;;18.38;62.61
35307;BME280;21420;52.196;21.416;2022-09-29T11:23:26;99162.41;;;18.55;61.86
35307;BME280;21420;52.196;21.416;2022-09-29T11:34:30;99166.54;;;20.13;61.45
35307;BME280;21420;52.196;21.416;2022-09-29T11:45:39;99164.41;;;19.49;60.13
35307;BME280;21420;52.196;21.416;2022-09-29T11:49:04;99158.36;;;19.54;60.32
35307;BME280;21420;52.196;21.416;2022-09-29T11:57:41;99172.25;;;18.99;59.97
35307;BME280;21420;52.196;21.416;2022-09-29T12:00:17;99163.63;;;18.66;59.93
35307;BME280;21420;52.196;21.416;2022-09-29T12:03:06;99168.39;;;18.54;60.05
35307;BME280;21420;52.196;21.416;2022-09-29T12:06:05;99167.11;;;18.46;60.35
35307;BME280;21420;52.196;21.416;2022-09-29T12:11:52;99166.12;;;18.18;60.02
35307;BME280;21420;52.196;21.416;2022-09-29T12:14:29;99173.09;;;17.99;59.84
35307;BME280;21420;52.196;21.416;2022-09-29T12:17:02;99173.70;;;17.79;59.77
35307;BME280;21420;52.196;21.416;2022-09-29T12:19:32;99176.08;;;17.62;59.77
35307;BME280;21420;52.196;21.416;2022-09-29T12:22:03;99172.27;;;17.48;59.78
35307;BME280;21420;52.196;21.416;2022-09-29T12:24:49;99170.46;;;17.31;59.59
35307;BME280;21420;52.196;21.416;2022-09-29T12:27:22;99178.91;;;17.17;59.70
35307;BME280;21420;52.196;21.416;2022-09-29T12:38:14;99190.92;;;16.66;59.57
35307;BME280;21420;52.196;21.416;2022-09-29T12:40:56;99189.10;;;16.45;59.47
35307;BME280;21420;52.196;21.416;2022-09-29T12:46:36;99201.37;;;16.00;59.34
35307;BME280;21420;52.196;21.416;2022-09-29T12:49:24;99210.13;;;15.73;59.31
35307;BME280;21420;52.196;21.416;2022-09-29T12:51:53;99207.20;;;15.54;59.32
35307;BME280;21420;52.196;21.416;2022-09-29T12:57:27;99204.83;;;15.74;60.07
35307;BME280;21420;52.196;21.416;2022-09-29T12:59:57;99202.32;;;16.09;60.23
35307;BME280;21420;52.196;21.416;2022-09-29T13:14:57;99203.01;;;18.42;60.05
35307;BME280;21420;52.196;21.416;2022-09-29T13:20:40;99203.33;;;18.59;59.09
35307;BME280;21420;52.196;21.416;2022-09-29T13:23:27;99205.55;;;18.44;58.89
35307;BME280;21420;52.196;21.416;2022-09-29T13:29:08;99207.75;;;18.26;58.77
35307;BME280;21420;52.196;21.416;2022-09-29T13:31:43;99206.46;;;18.19;58.86
35307;BME280;21420;52.196;21.416;2022-09-29T13:37:34;99200.65;;;18.09;59.13
35307;BME280;21420;52.196;21.416;2022-09-29T13:39:36;99203.92;;;18.31;58.97
35307;BME280;21420;52.196;21.416;2022-09-29T13:47:57;99210.82;;;17.85;58.27
35307;BME280;21420;52.196;21.416;2022-09-29T13:50:41;99219.12;;;17.66;58.06
35307;BME280;21420;52.196;21.416;2022-09-29T14:01:28;99235.82;;;16.88;58.24
35307;BME280;21420;52.196;21.416;2022-09-29T14:03:55;99239.06;;;16.72;58.03
35307;BME280;21420;52.196;21.416;2022-09-29T14:06:22;99249.05;;;16.55;57.99
35307;BME280;21420;52.196;21.416;2022-09-29T14:09:16;99257.17;;;16.43;58.01
35307;BME280;21420;52.196;21.416;2022-09-29T14:11:50;99257.22;;;16.36;58.04
35307;BME280;21420;52.196;21.416;2022-09-29T14:14:27;99258.25;;;16.27;57.97
35307;BME280;21420;52.196;21.416;2022-09-29T14:17:10;99251.20;;;16.15;58.03
35307;BME280;21420;52.196;21.416;2022-09-29T14:27:58;99263.25;;;16.54;58.49
35307;BME280;21420;52.196;21.416;2022-09-29T14:33:11;99264.61;;;16.94;58.24
35307;BME280;21420;52.196;21.416;2022-09-29T14:35:44;99261.56;;;17.08;58.04
35307;BME280;21420;52.196;21.416;2022-09-29T14:43:45;99263.34;;;17.32;57.73
35307;BME280;21420;52.196;21.416;2022-09-29T14:46:43;99262.20;;;17.26;57.51
35307;BME280;21420;52.196;21.416;2022-09-29T15:01:23;99273.58;;;16.83;57.21
35307;BME280;21420;52.196;21.416;2022-09-29T15:03:51;99271.44;;;16.72;57.12
35307;BME280;21420;52.196;21.416;2022-09-29T15:06:25;99268.17;;;16.54;57.10
35307;BME280;21420;52.196;21.416;2022-09-29T15:08:55;99272.58;;;16.41;57.10
35307;BME280;21420;52.196;21.416;2022-09-29T15:11:47;99277.80;;;16.24;57.02
35307;BME280;21420;52.196;21.416;2022-09-29T15:20:00;99292.70;;;15.87;57.29
35307;BME280;21420;52.196;21.416;2022-09-29T15:25:35;99297.63;;;15.62;57.25
35307;BME280;21420;52.196;21.416;2022-09-29T15:28:27;99304.75;;;15.45;57.14
35307;BME280;21420;52.196;21.416;2022-09-29T15:31:15;99303.56;;;15.28;57.12
35307;BME280;21420;52.196;21.416;2022-09-29T15:33:44;99304.14;;;15.10;57.15
35307;BME280;21420;52.196;21.416;2022-09-29T15:38:59;99305.06;;;14.79;57.09
35307;BME280;21420;52.196;21.416;2022-09-29T15:41:33;99314.67;;;14.65;57.12
35307;BME280;21420;52.196;21.416;2022-09-29T15:44:02;99322.66;;;14.49;57.15
35307;BME280;21420;52.196;21.416;2022-09-29T15:46:49;99326.55;;;14.37;57.15
35307;BME280;21420;52.196;21.416;2022-09-29T15:49:24;99326.50;;;14.23;57.19
35307;BME280;21420;52.196;21.416;2022-09-29T15:51:59;99327.38;;;14.07;57.13
35307;BME280;21420;52.196;21.416;2022-09-29T15:54:30;99329.27;;;13.92;57.12
35307;BME280;21420;52.196;21.416;2022-09-29T15:57:00;99323.61;;;13.70;57.10
35307;BME280;21420;52.196;21.416;2022-09-29T15:59:48;99327.19;;;13.50;57.10
35307;BME280;21420;52.196;21.416;2022-09-29T16:02:37;99333.31;;;13.29;57.11
35307;BME280;21420;52.196;21.416;2022-09-29T16:05:14;99334.31;;;13.14;57.17
35307;BME280;21420;52.196;21.416;2022-09-29T16:07:52;99331.52;;;12.90;57.03
35307;BME280;21420;52.196;21.416;2022-09-29T16:10:28;99328.58;;;12.72;57.16
35307;BME280;21420;52.196;21.416;2022-09-29T16:12:55;99338.97;;;12.52;57.12
35307;BME280;21420;52.196;21.416;2022-09-29T16:15:33;99340.42;;;12.29;57.08
35307;BME280;21420;52.196;21.416;2022-09-29T16:18:19;99342.11;;;12.07;57.08
35307;BME280;21420;52.196;21.416;2022-09-29T16:20:47;99347.89;;;11.88;57.18
35307;BME280;21420;52.196;21.416;2022-09-29T16:23:27;99353.15;;;11.74;57.32
35307;BME280;21420;52.196;21.416;2022-09-29T16:26:15;99354.30;;;11.60;57.33
35307;BME280;21420;52.196;21.416;2022-09-29T16:29:02;99362.16;;;11.38;57.26
35307;BME280;21420;52.196;21.416;2022-09-29T16:31:39;99361.81;;;11.17;57.32
35307;BME280;21420;52.196;21.416;2022-09-29T16:34:25;99361.55;;;10.93;57.37
35307;BME280;21420;52.196;21.416;2022-09-29T16:37:16;99366.25;;;10.73;57.35